sensor_id;sensor_type;location;lat;lon;timestamp;temperature;humidity
25554;DHT22;13446;50.926;5.332;2022-11-23T00:00:47;10.50;99.90
25554;DHT22;13446;50.926;5.332;2022-11-23T00:03:13;10.30;99.90
25554;DHT22;13446;50.926;5.332;2022-11-23T00:05:39;10.30;99.90
25554;DHT22;13446;50.926;5.332;2022-11-23T00:08:04;10.20;99.90
25554;DHT22;13446;50.926;5.332;2022-11-23T00:10:30;10.20;99.90
25554;DHT22;13446;50.926;5.332;2022-11-23T00:12:59;10.20;99.90
25554;DHT22;13446;50.926;5.332;2022-11-23T00:15:24;10.30;99.90
25554;DHT22;13446;50.926;5.332;2022-11-23T00:17:50;10.40;99.90
25554;DHT22;13446;50.926;5.332;2022-11-23T00:20:15;10.40;99.90
25554;DHT22;13446;50.926;5.332;2022-11-23T00:22:41;10.40;99.90
25554;DHT22;13446;50.926;5.332;2022-11-23T00:25:06;10.50;99.90
25554;DHT22;13446;50.926;5.332;2022-11-23T00:27:32;10.50;99.90
25554;DHT22;13446;50.926;5.332;2022-11-23T00:29:58;10.30;99.90
25554;DHT22;13446;50.926;5.332;2022-11-23T00:32:23;10.30;99.90
25554;DHT22;13446;50.926;5.332;2022-11-23T00:34:49;10.30;99.90
25554;DHT22;13446;50.926;5.332;2022-11-23T00:37:16;10.30;99.90
25554;DHT22;13446;50.926;5.332;2022-11-23T00:39:44;10.30;99.90
25554;DHT22;13446;50.926;5.332;2022-11-23T00:42:10;10.20;99.90
25554;DHT22;13446;50.926;5.332;2022-11-23T00:44:35;10.20;99.90
25554;DHT22;13446;50.926;5.332;2022-11-23T00:47:01;10.10;99.90
25554;DHT22;13446;50.926;5.332;2022-11-23T00:49:27;10.10;99.90
25554;DHT22;13446;50.926;5.332;2022-11-23T00:51:53;10.20;99.90
25554;DHT22;13446;50.926;5.332;2022-11-23T00:54:18;10.20;99.90
25554;DHT22;13446;50.926;5.332;2022-11-23T00:56:44;10.10;99.90
25554;DHT22;13446;50.926;5.332;2022-11-23T00:59:09;10.20;99.90
25554;DHT22;13446;50.926;5.332;2022-11-23T01:01:35;10.20;99.90
25554;DHT22;13446;50.926;5.332;2022-11-23T01:04:04;10.20;99.90
25554;DHT22;13446;50.926;5.332;2022-11-23T01:06:31;10.10;99.90
25554;DHT22;13446;50.926;5.332;2022-11-23T01:09:16;10.20;99.90
25554;DHT22;13446;50.926;5.332;2022-11-23T01:11:42;10.20;99.90
25554;DHT22;13446;50.926;5.332;2022-11-23T01:14:09;10.00;99.90
25554;DHT22;13446;50.926;5.332;2022-11-23T01:16:37;10.00;99.90
25554;DHT22;13446;50.926;5.332;2022-11-23T01:19:06;10.20;99.90
25554;DHT22;13446;50.926;5.332;2022-11-23T01:21:33;10.20;99.90
25554;DHT22;13446;50.926;5.332;2022-11-23T01:23:59;10.20;99.90
25554;DHT22;13446;50.926;5.332;2022-11-23T01:26:25;10.20;99.90
25554;DHT22;13446;50.926;5.332;2022-11-23T01:28:50;10.10;99.90
25554;DHT22;13446;50.926;5.332;2022-11-23T01:31:17;10.00;99.90
25554;DHT22;13446;50.926;5.332;2022-11-23T01:33:43;10.00;99.90
25554;DHT22;13446;50.926;5.332;2022-11-23T01:36:15;10.00;99.90
25554;DHT22;13446;50.926;5.332;2022-11-23T01:38:41;9.90;99.90
25554;DHT22;13446;50.926;5.332;2022-11-23T01:41:07;10.00;99.90
25554;DHT22;13446;50.926;5.332;2022-11-23T01:43:33;10.00;99.90
25554;DHT22;13446;50.926;5.332;2022-11-23T01:45:59;9.90;99.90
25554;DHT22;13446;50.926;5.332;2022-11-23T01:48:30;9.90;99.90
25554;DHT22;13446;50.926;5.332;2022-11-23T01:51:01;10.00;99.90
25554;DHT22;13446;50.926;5.332;2022-11-23T01:53:29;10.00;99.90
25554;DHT22;13446;50.926;5.332;2022-11-23T01:55:56;9.80;99.90
25554;DHT22;13446;50.926;5.332;2022-11-23T01:58:24;9.70;99.90
25554;DHT22;13446;50.926;5.332;2022-11-23T02:00:50;9.70;99.90
25554;DHT22;13446;50.926;5.332;2022-11-23T02:03:16;9.80;99.90
25554;DHT22;13446;50.926;5.332;2022-11-23T02:05:43;9.90;99.90
25554;DHT22;13446;50.926;5.332;2022-11-23T02:08:10;9.90;99.90
25554;DHT22;13446;50.926;5.332;2022-11-23T02:10:37;10.00;99.90
25554;DHT22;13446;50.926;5.332;2022-11-23T02:13:04;10.00;99.90
25554;DHT22;13446;50.926;5.332;2022-11-23T02:15:30;9.90;99.90
25554;DHT22;13446;50.926;5.332;2022-11-23T02:17:58;10.00;99.90
25554;DHT22;13446;50.926;5.332;2022-11-23T02:20:24;9.90;99.90
25554;DHT22;13446;50.926;5.332;2022-11-23T02:25:24;9.90;99.90
25554;DHT22;13446;50.926;5.332;2022-11-23T02:27:53;10.00;99.90
25554;DHT22;13446;50.926;5.332;2022-11-23T02:30:18;10.00;99.90
25554;DHT22;13446;50.926;5.332;2022-11-23T02:32:45;10.00;99.90
25554;DHT22;13446;50.926;5.332;2022-11-23T02:35:11;10.20;99.90
25554;DHT22;13446;50.926;5.332;2022-11-23T02:37:37;10.10;99.90
25554;DHT22;13446;50.926;5.332;2022-11-23T02:40:03;10.00;99.90
25554;DHT22;13446;50.926;5.332;2022-11-23T02:42:33;9.90;99.90
25554;DHT22;13446;50.926;5.332;2022-11-23T02:45:14;9.90;99.90
25554;DHT22;13446;50.926;5.332;2022-11-23T02:47:44;10.00;99.90
25554;DHT22;13446;50.926;5.332;2022-11-23T02:50:09;9.90;99.90
25554;DHT22;13446;50.926;5.332;2022-11-23T02:52:35;9.80;99.90
25554;DHT22;13446;50.926;5.332;2022-11-23T02:55:00;9.80;99.90
25554;DHT22;13446;50.926;5.332;2022-11-23T02:57:26;10.00;99.90
25554;DHT22;13446;50.926;5.332;2022-11-23T02:59:52;10.00;99.90
25554;DHT22;13446;50.926;5.332;2022-11-23T03:02:18;10.10;99.90
25554;DHT22;13446;50.926;5.332;2022-11-23T03:04:44;10.20;99.90
25554;DHT22;13446;50.926;5.332;2022-11-23T03:07:09;10.10;99.90
25554;DHT22;13446;50.926;5.332;2022-11-23T03:09:35;10.00;99.90
25554;DHT22;13446;50.926;5.332;2022-11-23T03:12:00;9.90;99.90
25554;DHT22;13446;50.926;5.332;2022-11-23T03:14:26;9.80;99.90
25554;DHT22;13446;50.926;5.332;2022-11-23T03:16:52;9.90;99.90
25554;DHT22;13446;50.926;5.332;2022-11-23T03:19:18;9.90;99.90
25554;DHT22;13446;50.926;5.332;2022-11-23T03:21:44;9.80;99.90
25554;DHT22;13446;50.926;5.332;2022-11-23T03:24:11;9.90;99.90
25554;DHT22;13446;50.926;5.332;2022-11-23T03:26:36;10.00;99.90
25554;DHT22;13446;50.926;5.332;2022-11-23T03:29:02;10.00;99.90
25554;DHT22;13446;50.926;5.332;2022-11-23T03:31:27;9.90;99.90
25554;DHT22;13446;50.926;5.332;2022-11-23T03:33:54;10.00;99.90
25554;DHT22;13446;50.926;5.332;2022-11-23T03:36:20;10.00;99.90
25554;DHT22;13446;50.926;5.332;2022-11-23T03:38:45;10.10;99.90
25554;DHT22;13446;50.926;5.332;2022-11-23T03:41:11;10.10;99.90
25554;DHT22;13446;50.926;5.332;2022-11-23T03:43:36;10.00;99.90
25554;DHT22;13446;50.926;5.332;2022-11-23T03:46:02;9.90;99.90
25554;DHT22;13446;50.926;5.332;2022-11-23T03:48:27;9.90;99.90
25554;DHT22;13446;50.926;5.332;2022-11-23T03:50:53;9.90;99.90
25554;DHT22;13446;50.926;5.332;2022-11-23T03:53:18;9.90;99.90
25554;DHT22;13446;50.926;5.332;2022-11-23T03:55:44;9.90;99.90
25554;DHT22;13446;50.926;5.332;2022-11-23T03:58:10;9.90;99.90
25554;DHT22;13446;50.926;5.332;2022-11-23T04:00:35;10.00;99.90
25554;DHT22;13446;50.926;5.332;2022-11-23T04:03:01;10.00;99.90
25554;DHT22;13446;50.926;5.332;2022-11-23T04:05:26;10.00;99.90
25554;DHT22;13446;50.926;5.332;2022-11-23T04:07:52;10.00;99.90
25554;DHT22;13446;50.926;5.332;2022-11-23T04:10:18;9.80;99.90
25554;DHT22;13446;50.926;5.332;2022-11-23T04:12:43;9.80;99.90
25554;DHT22;13446;50.926;5.332;2022-11-23T04:15:09;9.90;99.90
25554;DHT22;13446;50.926;5.332;2022-11-23T04:17:35;9.90;99.90
25554;DHT22;13446;50.926;5.332;2022-11-23T04:20:00;9.90;99.90
25554;DHT22;13446;50.926;5.332;2022-11-23T04:22:26;9.90;99.90
25554;DHT22;13446;50.926;5.332;2022-11-23T04:24:51;9.90;99.90
25554;DHT22;13446;50.926;5.332;2022-11-23T04:27:17;9.90;99.90
25554;DHT22;13446;50.926;5.332;2022-11-23T04:29:42;9.80;99.90
25554;DHT22;13446;50.926;5.332;2022-11-23T04:32:08;9.80;99.90
25554;DHT22;13446;50.926;5.332;2022-11-23T04:34:33;9.80;99.90
25554;DHT22;13446;50.926;5.332;2022-11-23T04:36:59;9.70;99.90
25554;DHT22;13446;50.926;5.332;2022-11-23T04:39:25;9.70;99.90
25554;DHT22;13446;50.926;5.332;2022-11-23T04:41:50;9.70;99.90
25554;DHT22;13446;50.926;5.332;2022-11-23T04:44:16;9.80;99.90
25554;DHT22;13446;50.926;5.332;2022-11-23T04:46:42;9.80;99.90
25554;DHT22;13446;50.926;5.332;2022-11-23T04:49:08;9.90;99.90
25554;DHT22;13446;50.926;5.332;2022-11-23T04:51:33;9.80;99.90
25554;DHT22;13446;50.926;5.332;2022-11-23T04:53:59;9.70;99.90
25554;DHT22;13446;50.926;5.332;2022-11-23T04:56:24;9.70;99.90
25554;DHT22;13446;50.926;5.332;2022-11-23T04:58:50;9.80;99.90
25554;DHT22;13446;50.926;5.332;2022-11-23T05:01:15;9.70;99.90
25554;DHT22;13446;50.926;5.332;2022-11-23T05:03:41;9.60;99.90
25554;DHT22;13446;50.926;5.332;2022-11-23T05:06:08;9.60;99.90
25554;DHT22;13446;50.926;5.332;2022-11-23T05:08:33;9.60;99.90
25554;DHT22;13446;50.926;5.332;2022-11-23T05:10:59;9.70;99.90
25554;DHT22;13446;50.926;5.332;2022-11-23T05:13:26;9.80;99.90
25554;DHT22;13446;50.926;5.332;2022-11-23T05:15:53;9.90;99.90
25554;DHT22;13446;50.926;5.332;2022-11-23T05:18:18;9.90;99.90
25554;DHT22;13446;50.926;5.332;2022-11-23T05:20:44;9.80;99.90
25554;DHT22;13446;50.926;5.332;2022-11-23T05:23:10;9.80;99.90
25554;DHT22;13446;50.926;5.332;2022-11-23T05:25:36;9.80;99.90
25554;DHT22;13446;50.926;5.332;2022-11-23T05:28:02;9.80;99.90
25554;DHT22;13446;50.926;5.332;2022-11-23T05:30:28;9.90;99.90
25554;DHT22;13446;50.926;5.332;2022-11-23T05:32:53;9.90;99.90
25554;DHT22;13446;50.926;5.332;2022-11-23T05:35:23;9.90;99.90
25554;DHT22;13446;50.926;5.332;2022-11-23T05:37:49;9.90;99.90
25554;DHT22;13446;50.926;5.332;2022-11-23T05:40:14;9.80;99.90
25554;DHT22;13446;50.926;5.332;2022-11-23T05:42:40;9.70;99.90
25554;DHT22;13446;50.926;5.332;2022-11-23T05:45:05;9.70;99.90
25554;DHT22;13446;50.926;5.332;2022-11-23T05:47:32;9.70;99.90
25554;DHT22;13446;50.926;5.332;2022-11-23T05:49:58;9.80;99.90
25554;DHT22;13446;50.926;5.332;2022-11-23T05:52:24;9.70;99.90
25554;DHT22;13446;50.926;5.332;2022-11-23T05:54:50;9.70;99.90
25554;DHT22;13446;50.926;5.332;2022-11-23T05:57:15;9.50;99.90
25554;DHT22;13446;50.926;5.332;2022-11-23T05:59:42;9.40;99.90
25554;DHT22;13446;50.926;5.332;2022-11-23T06:02:07;9.40;99.90
25554;DHT22;13446;50.926;5.332;2022-11-23T06:04:34;9.30;99.90
25554;DHT22;13446;50.926;5.332;2022-11-23T06:06:59;9.40;99.90
25554;DHT22;13446;50.926;5.332;2022-11-23T06:09:26;9.30;99.90
25554;DHT22;13446;50.926;5.332;2022-11-23T06:11:52;9.20;99.90
25554;DHT22;13446;50.926;5.332;2022-11-23T06:14:17;9.20;99.90
25554;DHT22;13446;50.926;5.332;2022-11-23T06:16:43;9.20;99.90
25554;DHT22;13446;50.926;5.332;2022-11-23T06:19:09;9.10;99.90
25554;DHT22;13446;50.926;5.332;2022-11-23T06:21:34;9.00;99.90
25554;DHT22;13446;50.926;5.332;2022-11-23T06:24:01;9.00;99.90
25554;DHT22;13446;50.926;5.332;2022-11-23T06:26:29;9.10;99.90
25554;DHT22;13446;50.926;5.332;2022-11-23T06:28:56;9.10;99.90
25554;DHT22;13446;50.926;5.332;2022-11-23T06:31:22;9.10;99.90
25554;DHT22;13446;50.926;5.332;2022-11-23T06:33:48;9.10;99.90
25554;DHT22;13446;50.926;5.332;2022-11-23T06:36:13;9.10;99.90
25554;DHT22;13446;50.926;5.332;2022-11-23T06:38:40;9.00;99.90
25554;DHT22;13446;50.926;5.332;2022-11-23T06:41:05;8.90;99.90
25554;DHT22;13446;50.926;5.332;2022-11-23T06:43:31;9.00;99.90
25554;DHT22;13446;50.926;5.332;2022-11-23T06:45:57;8.90;99.90
25554;DHT22;13446;50.926;5.332;2022-11-23T06:48:23;8.80;99.90
25554;DHT22;13446;50.926;5.332;2022-11-23T06:50:49;8.80;99.90
25554;DHT22;13446;50.926;5.332;2022-11-23T06:53:14;8.90;99.90
25554;DHT22;13446;50.926;5.332;2022-11-23T06:55:40;8.80;99.90
25554;DHT22;13446;50.926;5.332;2022-11-23T06:58:07;8.70;99.90
25554;DHT22;13446;50.926;5.332;2022-11-23T07:00:33;8.60;99.90
25554;DHT22;13446;50.926;5.332;2022-11-23T07:02:58;8.70;99.90
25554;DHT22;13446;50.926;5.332;2022-11-23T07:05:24;8.60;99.90
25554;DHT22;13446;50.926;5.332;2022-11-23T07:07:50;8.50;99.90
25554;DHT22;13446;50.926;5.332;2022-11-23T07:10:16;8.50;99.90
25554;DHT22;13446;50.926;5.332;2022-11-23T07:12:41;8.40;99.90
25554;DHT22;13446;50.926;5.332;2022-11-23T07:15:07;8.50;99.90
25554;DHT22;13446;50.926;5.332;2022-11-23T07:17:36;8.50;99.90
25554;DHT22;13446;50.926;5.332;2022-11-23T07:20:02;8.50;99.90
25554;DHT22;13446;50.926;5.332;2022-11-23T07:22:28;8.40;99.90
25554;DHT22;13446;50.926;5.332;2022-11-23T07:24:53;8.50;99.90
25554;DHT22;13446;50.926;5.332;2022-11-23T07:27:19;8.50;99.90
25554;DHT22;13446;50.926;5.332;2022-11-23T07:29:44;8.50;99.90
25554;DHT22;13446;50.926;5.332;2022-11-23T07:32:10;8.40;99.90
25554;DHT22;13446;50.926;5.332;2022-11-23T07:34:37;8.60;99.90
25554;DHT22;13446;50.926;5.332;2022-11-23T07:37:02;8.60;99.90
25554;DHT22;13446;50.926;5.332;2022-11-23T07:39:28;8.50;99.90
25554;DHT22;13446;50.926;5.332;2022-11-23T07:41:54;8.50;99.90
25554;DHT22;13446;50.926;5.332;2022-11-23T07:44:20;8.50;99.90
25554;DHT22;13446;50.926;5.332;2022-11-23T07:46:45;8.50;99.90
25554;DHT22;13446;50.926;5.332;2022-11-23T07:49:11;8.60;99.90
25554;DHT22;13446;50.926;5.332;2022-11-23T07:51:37;8.60;99.90
25554;DHT22;13446;50.926;5.332;2022-11-23T07:54:02;8.60;99.90
25554;DHT22;13446;50.926;5.332;2022-11-23T07:56:28;8.60;99.90
25554;DHT22;13446;50.926;5.332;2022-11-23T07:58:53;8.70;99.90
25554;DHT22;13446;50.926;5.332;2022-11-23T08:01:19;8.80;99.90
25554;DHT22;13446;50.926;5.332;2022-11-23T08:03:45;8.80;99.90
25554;DHT22;13446;50.926;5.332;2022-11-23T08:06:10;8.90;99.90
25554;DHT22;13446;50.926;5.332;2022-11-23T08:08:36;8.80;99.90
25554;DHT22;13446;50.926;5.332;2022-11-23T08:11:05;8.90;99.90
25554;DHT22;13446;50.926;5.332;2022-11-23T08:13:32;8.80;99.90
25554;DHT22;13446;50.926;5.332;2022-11-23T08:16:01;8.80;99.90
25554;DHT22;13446;50.926;5.332;2022-11-23T08:18:27;8.90;99.90
25554;DHT22;13446;50.926;5.332;2022-11-23T08:20:53;9.00;99.90
25554;DHT22;13446;50.926;5.332;2022-11-23T08:23:19;9.20;99.90
25554;DHT22;13446;50.926;5.332;2022-11-23T08:25:44;9.90;99.90
25554;DHT22;13446;50.926;5.332;2022-11-23T08:28:10;10.60;99.90
25554;DHT22;13446;50.926;5.332;2022-11-23T08:30:36;11.50;99.90
25554;DHT22;13446;50.926;5.332;2022-11-23T08:33:02;12.10;99.90
25554;DHT22;13446;50.926;5.332;2022-11-23T08:35:29;12.50;99.90
25554;DHT22;13446;50.926;5.332;2022-11-23T08:37:54;12.90;99.90
25554;DHT22;13446;50.926;5.332;2022-11-23T08:40:20;13.20;99.90
25554;DHT22;13446;50.926;5.332;2022-11-23T08:42:45;13.60;99.90
25554;DHT22;13446;50.926;5.332;2022-11-23T08:45:11;13.80;99.90
25554;DHT22;13446;50.926;5.332;2022-11-23T08:47:37;13.70;99.90
25554;DHT22;13446;50.926;5.332;2022-11-23T08:50:02;13.70;99.90
25554;DHT22;13446;50.926;5.332;2022-11-23T08:52:28;13.40;99.90
25554;DHT22;13446;50.926;5.332;2022-11-23T08:54:54;13.60;99.90
25554;DHT22;13446;50.926;5.332;2022-11-23T08:57:19;13.90;99.90
25554;DHT22;13446;50.926;5.332;2022-11-23T08:59:46;14.00;99.90
25554;DHT22;13446;50.926;5.332;2022-11-23T09:02:12;14.20;99.90
25554;DHT22;13446;50.926;5.332;2022-11-23T09:04:40;14.60;99.90
25554;DHT22;13446;50.926;5.332;2022-11-23T09:07:06;15.00;99.90
25554;DHT22;13446;50.926;5.332;2022-11-23T09:09:32;15.60;99.90
25554;DHT22;13446;50.926;5.332;2022-11-23T09:11:57;16.10;99.90
25554;DHT22;13446;50.926;5.332;2022-11-23T09:14:23;16.80;99.90
25554;DHT22;13446;50.926;5.332;2022-11-23T09:16:48;17.00;99.90
25554;DHT22;13446;50.926;5.332;2022-11-23T09:19:14;17.40;99.90
25554;DHT22;13446;50.926;5.332;2022-11-23T09:21:39;17.70;99.00
25554;DHT22;13446;50.926;5.332;2022-11-23T09:24:10;18.10;98.30
25554;DHT22;13446;50.926;5.332;2022-11-23T09:26:38;18.40;96.80
25554;DHT22;13446;50.926;5.332;2022-11-23T09:29:04;18.80;95.90
25554;DHT22;13446;50.926;5.332;2022-11-23T09:31:29;18.70;95.10
25554;DHT22;13446;50.926;5.332;2022-11-23T09:33:55;19.30;93.50
25554;DHT22;13446;50.926;5.332;2022-11-23T09:36:20;19.50;93.70
25554;DHT22;13446;50.926;5.332;2022-11-23T09:38:49;19.70;91.80
25554;DHT22;13446;50.926;5.332;2022-11-23T09:51:34;20.40;90.10
25554;DHT22;13446;50.926;5.332;2022-11-23T09:54:09;20.20;88.90
25554;DHT22;13446;50.926;5.332;2022-11-23T09:56:36;20.00;88.50
25554;DHT22;13446;50.926;5.332;2022-11-23T09:59:09;20.20;87.90
25554;DHT22;13446;50.926;5.332;2022-11-23T10:01:36;20.50;87.60
25554;DHT22;13446;50.926;5.332;2022-11-23T10:04:02;20.30;86.50
25554;DHT22;13446;50.926;5.332;2022-11-23T10:06:29;20.30;85.60
25554;DHT22;13446;50.926;5.332;2022-11-23T10:09:00;20.30;85.30
25554;DHT22;13446;50.926;5.332;2022-11-23T10:17:05;19.20;89.50
25554;DHT22;13446;50.926;5.332;2022-11-23T10:19:41;19.30;90.10
25554;DHT22;13446;50.926;5.332;2022-11-23T10:22:17;19.50;90.10
25554;DHT22;13446;50.926;5.332;2022-11-23T10:24:45;19.40;90.00
25554;DHT22;13446;50.926;5.332;2022-11-23T10:27:14;19.50;90.20
25554;DHT22;13446;50.926;5.332;2022-11-23T10:29:42;19.60;89.40
25554;DHT22;13446;50.926;5.332;2022-11-23T10:32:20;19.50;89.30
25554;DHT22;13446;50.926;5.332;2022-11-23T10:37:31;18.50;91.50
25554;DHT22;13446;50.926;5.332;2022-11-23T10:39:59;17.70;93.30
25554;DHT22;13446;50.926;5.332;2022-11-23T10:42:41;16.90;95.10
25554;DHT22;13446;50.926;5.332;2022-11-23T10:45:25;16.00;97.60
25554;DHT22;13446;50.926;5.332;2022-11-23T10:50:35;14.40;99.90
25554;DHT22;13446;50.926;5.332;2022-11-23T10:53:22;14.90;99.90
25554;DHT22;13446;50.926;5.332;2022-11-23T10:55:50;15.30;99.90
25554;DHT22;13446;50.926;5.332;2022-11-23T10:58:26;15.00;99.90
25554;DHT22;13446;50.926;5.332;2022-11-23T11:01:00;15.40;99.90
25554;DHT22;13446;50.926;5.332;2022-11-23T11:03:28;16.20;99.90
25554;DHT22;13446;50.926;5.332;2022-11-23T11:05:54;16.80;99.90
25554;DHT22;13446;50.926;5.332;2022-11-23T11:08:21;16.60;99.90
25554;DHT22;13446;50.926;5.332;2022-11-23T11:11:04;16.40;99.90
25554;DHT22;13446;50.926;5.332;2022-11-23T11:16:03;16.80;99.90
25554;DHT22;13446;50.926;5.332;2022-11-23T11:18:33;17.80;98.80
25554;DHT22;13446;50.926;5.332;2022-11-23T11:21:06;18.90;95.30
25554;DHT22;13446;50.926;5.332;2022-11-23T11:23:33;19.60;93.20
25554;DHT22;13446;50.926;5.332;2022-11-23T11:26:04;20.50;90.00
25554;DHT22;13446;50.926;5.332;2022-11-23T11:28:37;20.70;85.00
25554;DHT22;13446;50.926;5.332;2022-11-23T11:36:14;20.00;84.80
25554;DHT22;13446;50.926;5.332;2022-11-23T11:38:41;19.70;84.00
25554;DHT22;13446;50.926;5.332;2022-11-23T11:41:10;19.30;85.90
25554;DHT22;13446;50.926;5.332;2022-11-23T11:43:46;19.10;87.70
25554;DHT22;13446;50.926;5.332;2022-11-23T11:46:14;18.90;86.80
25554;DHT22;13446;50.926;5.332;2022-11-23T11:51:25;17.50;90.60
25554;DHT22;13446;50.926;5.332;2022-11-23T11:53:54;17.20;92.20
25554;DHT22;13446;50.926;5.332;2022-11-23T12:01:35;16.70;93.60
25554;DHT22;13446;50.926;5.332;2022-11-23T12:04:05;16.00;95.70
25554;DHT22;13446;50.926;5.332;2022-11-23T12:06:34;15.70;96.80
25554;DHT22;13446;50.926;5.332;2022-11-23T12:09:04;15.30;98.10
25554;DHT22;13446;50.926;5.332;2022-11-23T12:11:31;15.00;99.90
25554;DHT22;13446;50.926;5.332;2022-11-23T12:14:00;14.70;99.90
25554;DHT22;13446;50.926;5.332;2022-11-23T12:34:51;13.60;99.90
25554;DHT22;13446;50.926;5.332;2022-11-23T12:37:23;13.60;99.90
25554;DHT22;13446;50.926;5.332;2022-11-23T12:55:34;13.30;99.90
25554;DHT22;13446;50.926;5.332;2022-11-23T13:01:00;13.40;99.90
25554;DHT22;13446;50.926;5.332;2022-11-23T13:13:43;13.30;99.90
25554;DHT22;13446;50.926;5.332;2022-11-23T13:16:17;13.20;99.90
25554;DHT22;13446;50.926;5.332;2022-11-23T13:18:55;13.20;99.90
25554;DHT22;13446;50.926;5.332;2022-11-23T13:23:48;12.90;99.90
25554;DHT22;13446;50.926;5.332;2022-11-23T13:26:15;12.80;99.90
25554;DHT22;13446;50.926;5.332;2022-11-23T13:28:41;12.70;99.90
25554;DHT22;13446;50.926;5.332;2022-11-23T13:33:51;12.70;99.90
25554;DHT22;13446;50.926;5.332;2022-11-23T13:38:52;12.50;99.90
25554;DHT22;13446;50.926;5.332;2022-11-23T13:44:11;12.20;99.90
25554;DHT22;13446;50.926;5.332;2022-11-23T13:46:41;12.00;99.90
25554;DHT22;13446;50.926;5.332;2022-11-23T13:49:27;11.80;99.90
25554;DHT22;13446;50.926;5.332;2022-11-23T13:52:03;11.90;99.90
25554;DHT22;13446;50.926;5.332;2022-11-23T13:54:29;11.60;99.90
25554;DHT22;13446;50.926;5.332;2022-11-23T13:57:00;11.50;99.90
25554;DHT22;13446;50.926;5.332;2022-11-23T13:59:28;11.60;99.90
25554;DHT22;13446;50.926;5.332;2022-11-23T14:04:35;11.30;99.90
25554;DHT22;13446;50.926;5.332;2022-11-23T14:07:23;11.20;99.90
25554;DHT22;13446;50.926;5.332;2022-11-23T14:09:54;11.10;99.90
25554;DHT22;13446;50.926;5.332;2022-11-23T14:12:24;10.90;99.90
25554;DHT22;13446;50.926;5.332;2022-11-23T14:22:38;11.10;99.90
25554;DHT22;13446;50.926;5.332;2022-11-23T14:25:15;11.10;99.90
25554;DHT22;13446;50.926;5.332;2022-11-23T14:30:34;11.10;99.90
25554;DHT22;13446;50.926;5.332;2022-11-23T14:38:40;11.10;99.90
25554;DHT22;13446;50.926;5.332;2022-11-23T14:41:19;11.20;99.90
25554;DHT22;13446;50.926;5.332;2022-11-23T14:43:46;11.10;99.90
25554;DHT22;13446;50.926;5.332;2022-11-23T14:46:19;11.10;99.90
25554;DHT22;13446;50.926;5.332;2022-11-23T14:49:01;10.90;99.90
25554;DHT22;13446;50.926;5.332;2022-11-23T14:51:27;10.80;99.90
25554;DHT22;13446;50.926;5.332;2022-11-23T14:53:54;10.70;99.90
25554;DHT22;13446;50.926;5.332;2022-11-23T14:56:33;10.50;99.90
25554;DHT22;13446;50.926;5.332;2022-11-23T15:01:31;10.40;99.90
25554;DHT22;13446;50.926;5.332;2022-11-23T15:03:57;10.40;99.90
25554;DHT22;13446;50.926;5.332;2022-11-23T15:06:28;10.30;99.90
25554;DHT22;13446;50.926;5.332;2022-11-23T15:09:07;10.30;99.90
25554;DHT22;13446;50.926;5.332;2022-11-23T15:11:39;10.20;99.90
25554;DHT22;13446;50.926;5.332;2022-11-23T15:14:18;10.20;99.90
25554;DHT22;13446;50.926;5.332;2022-11-23T15:16:44;10.00;99.90
25554;DHT22;13446;50.926;5.332;2022-11-23T15:21:43;10.10;99.90
25554;DHT22;13446;50.926;5.332;2022-11-23T15:24:20;10.20;99.90
25554;DHT22;13446;50.926;5.332;2022-11-23T15:26:46;10.20;99.90
25554;DHT22;13446;50.926;5.332;2022-11-23T15:31:52;10.20;99.90
25554;DHT22;13446;50.926;5.332;2022-11-23T15:34:18;10.10;99.90
25554;DHT22;13446;50.926;5.332;2022-11-23T15:36:46;10.00;99.90
25554;DHT22;13446;50.926;5.332;2022-11-23T15:39:14;10.00;99.90
25554;DHT22;13446;50.926;5.332;2022-11-23T15:41:40;10.00;99.90
25554;DHT22;13446;50.926;5.332;2022-11-23T15:44:16;10.10;99.90
25554;DHT22;13446;50.926;5.332;2022-11-23T15:46:44;10.20;99.90
25554;DHT22;13446;50.926;5.332;2022-11-23T15:49:14;10.00;99.90
25554;DHT22;13446;50.926;5.332;2022-11-23T15:51:41;10.00;99.90
25554;DHT22;13446;50.926;5.332;2022-11-23T15:57:02;9.80;99.90
25554;DHT22;13446;50.926;5.332;2022-11-23T15:59:34;9.70;99.90
25554;DHT22;13446;50.926;5.332;2022-11-23T16:02:03;9.90;99.90
25554;DHT22;13446;50.926;5.332;2022-11-23T16:04:31;9.90;99.90
25554;DHT22;13446;50.926;5.332;2022-11-23T16:06:56;9.80;99.90
25554;DHT22;13446;50.926;5.332;2022-11-23T16:09:36;10.00;99.90
25554;DHT22;13446;50.926;5.332;2022-11-23T16:12:03;9.90;99.90
25554;DHT22;13446;50.926;5.332;2022-11-23T16:14:30;9.80;99.90
25554;DHT22;13446;50.926;5.332;2022-11-23T16:17:01;9.80;99.90
25554;DHT22;13446;50.926;5.332;2022-11-23T16:19:28;9.80;99.90
25554;DHT22;13446;50.926;5.332;2022-11-23T16:22:05;9.80;99.90
25554;DHT22;13446;50.926;5.332;2022-11-23T16:24:31;9.80;99.90
25554;DHT22;13446;50.926;5.332;2022-11-23T16:26:58;9.80;99.90
25554;DHT22;13446;50.926;5.332;2022-11-23T16:29:28;9.70;99.90
25554;DHT22;13446;50.926;5.332;2022-11-23T16:31:58;9.70;99.90
25554;DHT22;13446;50.926;5.332;2022-11-23T16:34:25;9.70;99.90
25554;DHT22;13446;50.926;5.332;2022-11-23T16:36:54;9.70;99.90
25554;DHT22;13446;50.926;5.332;2022-11-23T16:39:24;9.60;99.90
25554;DHT22;13446;50.926;5.332;2022-11-23T16:41:50;9.60;99.90
25554;DHT22;13446;50.926;5.332;2022-11-23T16:44:17;9.50;99.90
25554;DHT22;13446;50.926;5.332;2022-11-23T16:46:43;9.60;99.90
25554;DHT22;13446;50.926;5.332;2022-11-23T16:49:18;9.50;99.90
25554;DHT22;13446;50.926;5.332;2022-11-23T16:51:44;9.40;99.90
25554;DHT22;13446;50.926;5.332;2022-11-23T16:54:10;9.40;99.90
25554;DHT22;13446;50.926;5.332;2022-11-23T16:56:35;9.50;99.90
25554;DHT22;13446;50.926;5.332;2022-11-23T16:59:01;9.50;99.90
25554;DHT22;13446;50.926;5.332;2022-11-23T17:01:27;9.40;99.90
25554;DHT22;13446;50.926;5.332;2022-11-23T17:03:56;9.30;99.90
25554;DHT22;13446;50.926;5.332;2022-11-23T17:06:22;9.30;99.90
25554;DHT22;13446;50.926;5.332;2022-11-23T17:08:48;9.50;99.90
25554;DHT22;13446;50.926;5.332;2022-11-23T17:11:18;9.40;99.90
25554;DHT22;13446;50.926;5.332;2022-11-23T17:13:45;9.20;99.90
25554;DHT22;13446;50.926;5.332;2022-11-23T17:16:15;9.20;99.90
25554;DHT22;13446;50.926;5.332;2022-11-23T17:18:40;9.30;99.90
25554;DHT22;13446;50.926;5.332;2022-11-23T17:21:06;9.20;99.90
25554;DHT22;13446;50.926;5.332;2022-11-23T17:23:32;9.20;99.90
25554;DHT22;13446;50.926;5.332;2022-11-23T17:25:57;9.20;99.90
25554;DHT22;13446;50.926;5.332;2022-11-23T17:28:23;9.20;99.90
25554;DHT22;13446;50.926;5.332;2022-11-23T17:30:50;9.30;99.90
25554;DHT22;13446;50.926;5.332;2022-11-23T17:33:16;9.20;99.90
25554;DHT22;13446;50.926;5.332;2022-11-23T17:35:41;9.00;99.90
25554;DHT22;13446;50.926;5.332;2022-11-23T17:38:11;8.90;99.90
25554;DHT22;13446;50.926;5.332;2022-11-23T17:40:37;9.00;99.90
25554;DHT22;13446;50.926;5.332;2022-11-23T17:43:03;9.00;99.90
25554;DHT22;13446;50.926;5.332;2022-11-23T17:45:28;9.10;99.90